sensor_id;sensor_type;location;lat;lon;timestamp;temperature;humidity
9385;DHT22;4732;49.340;10.886;2023-07-13T03:02:01;18.50;99.90
9385;DHT22;4732;49.340;10.886;2023-07-13T03:04:26;18.40;99.90
9385;DHT22;4732;49.340;10.886;2023-07-13T03:06:52;18.40;99.90
9385;DHT22;4732;49.340;10.886;2023-07-13T03:09:17;18.30;99.90
9385;DHT22;4732;49.340;10.886;2023-07-13T03:11:43;18.30;99.90
9385;DHT22;4732;49.340;10.886;2023-07-13T03:14:09;18.20;99.90
9385;DHT22;4732;49.340;10.886;2023-07-13T03:16:34;18.20;99.90
9385;DHT22;4732;49.340;10.886;2023-07-13T03:19:00;18.10;99.90
9385;DHT22;4732;49.340;10.886;2023-07-13T03:21:25;18.10;99.90
9385;DHT22;4732;49.340;10.886;2023-07-13T03:23:51;18.10;99.90
9385;DHT22;4732;49.340;10.886;2023-07-13T03:26:18;18.00;99.90
9385;DHT22;4732;49.340;10.886;2023-07-13T03:28:45;18.00;99.90
9385;DHT22;4732;49.340;10.886;2023-07-13T03:31:17;17.90;99.90
9385;DHT22;4732;49.340;10.886;2023-07-13T03:33:43;17.80;99.90
9385;DHT22;4732;49.340;10.886;2023-07-13T03:36:44;17.80;99.90
9385;DHT22;4732;49.340;10.886;2023-07-13T03:39:03;17.90;99.90
9385;DHT22;4732;49.340;10.886;2023-07-13T03:41:28;17.70;99.90
9385;DHT22;4732;49.340;10.886;2023-07-13T03:43:54;17.70;99.90
9385;DHT22;4732;49.340;10.886;2023-07-13T03:46:20;17.70;99.90
9385;DHT22;4732;49.340;10.886;2023-07-13T03:48:46;17.60;99.90
9385;DHT22;4732;49.340;10.886;2023-07-13T03:51:14;17.50;99.90
9385;DHT22;4732;49.340;10.886;2023-07-13T03:53:42;17.60;99.90
9385;DHT22;4732;49.340;10.886;2023-07-13T03:56:08;17.60;99.90
9385;DHT22;4732;49.340;10.886;2023-07-13T03:58:39;17.60;99.90
9385;DHT22;4732;49.340;10.886;2023-07-13T04:01:06;17.60;99.90
9385;DHT22;4732;49.340;10.886;2023-07-13T04:03:33;17.60;99.90
9385;DHT22;4732;49.340;10.886;2023-07-13T04:06:00;17.50;99.90
9385;DHT22;4732;49.340;10.886;2023-07-13T04:08:28;17.40;99.90
9385;DHT22;4732;49.340;10.886;2023-07-13T04:10:54;17.50;99.90
9385;DHT22;4732;49.340;10.886;2023-07-13T04:13:19;17.40;99.90
9385;DHT22;4732;49.340;10.886;2023-07-13T04:15:45;17.50;99.90
9385;DHT22;4732;49.340;10.886;2023-07-13T04:18:10;17.50;99.90
9385;DHT22;4732;49.340;10.886;2023-07-13T04:20:36;17.40;99.90
9385;DHT22;4732;49.340;10.886;2023-07-13T04:23:02;17.30;99.90
9385;DHT22;4732;49.340;10.886;2023-07-13T04:25:27;17.40;99.90
9385;DHT22;4732;49.340;10.886;2023-07-13T04:27:53;17.30;99.90
9385;DHT22;4732;49.340;10.886;2023-07-13T04:30:20;17.30;99.90
9385;DHT22;4732;49.340;10.886;2023-07-13T04:32:46;17.40;99.90
9385;DHT22;4732;49.340;10.886;2023-07-13T04:35:12;17.40;99.90
9385;DHT22;4732;49.340;10.886;2023-07-13T04:37:39;17.40;99.90
9385;DHT22;4732;49.340;10.886;2023-07-13T04:40:05;17.50;99.90
9385;DHT22;4732;49.340;10.886;2023-07-13T04:42:31;17.70;99.90
9385;DHT22;4732;49.340;10.886;2023-07-13T04:44:57;17.80;99.90
9385;DHT22;4732;49.340;10.886;2023-07-13T04:47:22;17.90;99.90
9385;DHT22;4732;49.340;10.886;2023-07-13T04:49:48;18.10;99.90
9385;DHT22;4732;49.340;10.886;2023-07-13T04:52:13;18.20;99.90
9385;DHT22;4732;49.340;10.886;2023-07-13T04:54:39;18.40;99.90
9385;DHT22;4732;49.340;10.886;2023-07-13T04:59:32;18.60;99.90
9385;DHT22;4732;49.340;10.886;2023-07-13T05:01:58;18.70;99.90
9385;DHT22;4732;49.340;10.886;2023-07-13T05:04:24;18.80;99.90
9385;DHT22;4732;49.340;10.886;2023-07-13T05:06:49;18.60;99.90
9385;DHT22;4732;49.340;10.886;2023-07-13T05:09:15;18.70;99.90
9385;DHT22;4732;49.340;10.886;2023-07-13T05:11:41;18.80;99.90
9385;DHT22;4732;49.340;10.886;2023-07-13T05:14:06;18.90;99.90
9385;DHT22;4732;49.340;10.886;2023-07-13T05:16:32;18.90;99.90
9385;DHT22;4732;49.340;10.886;2023-07-13T05:18:57;19.00;99.90
9385;DHT22;4732;49.340;10.886;2023-07-13T05:21:23;19.00;99.90
9385;DHT22;4732;49.340;10.886;2023-07-13T05:23:54;19.10;99.90
9385;DHT22;4732;49.340;10.886;2023-07-13T05:26:19;19.20;99.90
9385;DHT22;4732;49.340;10.886;2023-07-13T05:28:46;19.40;99.90
9385;DHT22;4732;49.340;10.886;2023-07-13T05:31:12;19.60;99.90
9385;DHT22;4732;49.340;10.886;2023-07-13T05:33:37;19.80;99.90
9385;DHT22;4732;49.340;10.886;2023-07-13T05:36:03;19.90;99.90
9385;DHT22;4732;49.340;10.886;2023-07-13T05:38:29;20.00;99.90
9385;DHT22;4732;49.340;10.886;2023-07-13T05:40:55;20.10;99.90
9385;DHT22;4732;49.340;10.886;2023-07-13T05:43:21;20.20;99.90
9385;DHT22;4732;49.340;10.886;2023-07-13T05:45:48;20.10;99.90
9385;DHT22;4732;49.340;10.886;2023-07-13T05:48:14;20.10;99.90
9385;DHT22;4732;49.340;10.886;2023-07-13T05:50:40;20.00;99.90
9385;DHT22;4732;49.340;10.886;2023-07-13T05:53:05;19.90;99.90
9385;DHT22;4732;49.340;10.886;2023-07-13T05:55:31;19.90;99.90
9385;DHT22;4732;49.340;10.886;2023-07-13T05:57:57;20.00;99.90
9385;DHT22;4732;49.340;10.886;2023-07-13T06:00:24;20.00;99.90
9385;DHT22;4732;49.340;10.886;2023-07-13T06:02:50;20.10;99.90
9385;DHT22;4732;49.340;10.886;2023-07-13T06:05:15;20.10;99.90
9385;DHT22;4732;49.340;10.886;2023-07-13T06:07:42;20.10;99.90
9385;DHT22;4732;49.340;10.886;2023-07-13T06:10:07;20.00;99.90
9385;DHT22;4732;49.340;10.886;2023-07-13T06:12:33;19.90;99.90
9385;DHT22;4732;49.340;10.886;2023-07-13T06:14:58;20.00;99.90
9385;DHT22;4732;49.340;10.886;2023-07-13T06:17:24;20.00;99.90
9385;DHT22;4732;49.340;10.886;2023-07-13T06:19:49;20.10;99.90
9385;DHT22;4732;49.340;10.886;2023-07-13T06:22:15;20.20;99.90
9385;DHT22;4732;49.340;10.886;2023-07-13T06:24:40;20.50;99.90
9385;DHT22;4732;49.340;10.886;2023-07-13T06:27:06;20.70;99.90
9385;DHT22;4732;49.340;10.886;2023-07-13T06:29:31;20.80;99.90
9385;DHT22;4732;49.340;10.886;2023-07-13T06:31:57;20.80;99.90
9385;DHT22;4732;49.340;10.886;2023-07-13T06:34:23;20.90;99.90
9385;DHT22;4732;49.340;10.886;2023-07-13T06:36:48;20.90;99.90
9385;DHT22;4732;49.340;10.886;2023-07-13T06:39:14;20.80;99.90
9385;DHT22;4732;49.340;10.886;2023-07-13T06:41:39;20.80;99.90
9385;DHT22;4732;49.340;10.886;2023-07-13T06:44:05;20.70;99.90
9385;DHT22;4732;49.340;10.886;2023-07-13T06:46:32;20.60;99.90
9385;DHT22;4732;49.340;10.886;2023-07-13T06:48:57;20.70;99.90
9385;DHT22;4732;49.340;10.886;2023-07-13T06:51:23;20.70;99.90
9385;DHT22;4732;49.340;10.886;2023-07-13T06:53:48;20.70;99.90
9385;DHT22;4732;49.340;10.886;2023-07-13T06:56:15;20.60;99.90
9385;DHT22;4732;49.340;10.886;2023-07-13T06:58:40;20.70;99.90
9385;DHT22;4732;49.340;10.886;2023-07-13T07:01:06;20.70;99.90
9385;DHT22;4732;49.340;10.886;2023-07-13T07:03:32;20.70;99.90
9385;DHT22;4732;49.340;10.886;2023-07-13T07:06:19;20.70;99.90
9385;DHT22;4732;49.340;10.886;2023-07-13T07:08:45;20.90;99.90
9385;DHT22;4732;49.340;10.886;2023-07-13T07:11:18;21.20;99.90
9385;DHT22;4732;49.340;10.886;2023-07-13T07:13:44;21.20;99.90
9385;DHT22;4732;49.340;10.886;2023-07-13T07:16:09;21.30;99.90
9385;DHT22;4732;49.340;10.886;2023-07-13T07:18:35;21.40;99.90
9385;DHT22;4732;49.340;10.886;2023-07-13T07:21:01;21.50;99.90
9385;DHT22;4732;49.340;10.886;2023-07-13T07:23:27;21.50;99.90
9385;DHT22;4732;49.340;10.886;2023-07-13T07:25:52;21.50;99.90
9385;DHT22;4732;49.340;10.886;2023-07-13T07:28:18;21.80;99.90
9385;DHT22;4732;49.340;10.886;2023-07-13T07:30:54;21.90;99.90
9385;DHT22;4732;49.340;10.886;2023-07-13T07:33:20;21.80;99.90
9385;DHT22;4732;49.340;10.886;2023-07-13T07:35:46;21.50;99.90
9385;DHT22;4732;49.340;10.886;2023-07-13T07:38:11;21.40;99.90
9385;DHT22;4732;49.340;10.886;2023-07-13T07:40:41;21.40;99.90
9385;DHT22;4732;49.340;10.886;2023-07-13T07:43:11;21.20;99.90
9385;DHT22;4732;49.340;10.886;2023-07-13T07:45:38;21.30;99.90
9385;DHT22;4732;49.340;10.886;2023-07-13T07:48:05;21.20;99.90
9385;DHT22;4732;49.340;10.886;2023-07-13T07:50:31;21.10;99.90
9385;DHT22;4732;49.340;10.886;2023-07-13T07:52:57;21.10;99.90
9385;DHT22;4732;49.340;10.886;2023-07-13T07:55:24;21.30;99.90
9385;DHT22;4732;49.340;10.886;2023-07-13T07:57:52;21.50;99.90
9385;DHT22;4732;49.340;10.886;2023-07-13T08:00:18;21.70;99.90
9385;DHT22;4732;49.340;10.886;2023-07-13T08:02:44;22.00;99.90
9385;DHT22;4732;49.340;10.886;2023-07-13T08:05:09;22.20;99.90
9385;DHT22;4732;49.340;10.886;2023-07-13T08:07:38;22.40;99.90
9385;DHT22;4732;49.340;10.886;2023-07-13T08:10:08;22.70;99.90
9385;DHT22;4732;49.340;10.886;2023-07-13T08:12:35;22.80;99.40
9385;DHT22;4732;49.340;10.886;2023-07-13T08:15:02;23.00;99.80
9385;DHT22;4732;49.340;10.886;2023-07-13T08:17:27;23.10;99.30
9385;DHT22;4732;49.340;10.886;2023-07-13T08:19:53;23.10;99.10
9385;DHT22;4732;49.340;10.886;2023-07-13T08:22:19;23.30;99.50
9385;DHT22;4732;49.340;10.886;2023-07-13T08:24:44;23.40;97.40
9385;DHT22;4732;49.340;10.886;2023-07-13T08:27:11;23.50;98.70
9385;DHT22;4732;49.340;10.886;2023-07-13T08:29:39;23.60;97.30
9385;DHT22;4732;49.340;10.886;2023-07-13T08:32:06;23.70;96.30
9385;DHT22;4732;49.340;10.886;2023-07-13T08:34:35;23.80;94.90
9385;DHT22;4732;49.340;10.886;2023-07-13T08:37:01;23.80;94.60
9385;DHT22;4732;49.340;10.886;2023-07-13T08:39:29;23.40;93.00
9385;DHT22;4732;49.340;10.886;2023-07-13T08:42:01;23.50;94.20
9385;DHT22;4732;49.340;10.886;2023-07-13T08:47:06;23.70;92.30
9385;DHT22;4732;49.340;10.886;2023-07-13T08:49:33;23.80;92.20
9385;DHT22;4732;49.340;10.886;2023-07-13T08:52:05;23.80;91.90
9385;DHT22;4732;49.340;10.886;2023-07-13T08:54:47;23.70;92.10
9385;DHT22;4732;49.340;10.886;2023-07-13T08:57:16;23.80;91.90
9385;DHT22;4732;49.340;10.886;2023-07-13T08:59:43;23.90;93.90
9385;DHT22;4732;49.340;10.886;2023-07-13T09:05:03;23.80;91.80
9385;DHT22;4732;49.340;10.886;2023-07-13T09:07:40;23.60;92.40
9385;DHT22;4732;49.340;10.886;2023-07-13T09:10:27;23.70;92.00
9385;DHT22;4732;49.340;10.886;2023-07-13T09:13:23;23.90;91.90
9385;DHT22;4732;49.340;10.886;2023-07-13T09:15:51;24.00;93.50
9385;DHT22;4732;49.340;10.886;2023-07-13T09:18:33;24.30;92.70
9385;DHT22;4732;49.340;10.886;2023-07-13T09:21:24;24.60;92.90
9385;DHT22;4732;49.340;10.886;2023-07-13T09:23:54;24.80;92.40
9385;DHT22;4732;49.340;10.886;2023-07-13T09:26:23;25.00;90.80
9385;DHT22;4732;49.340;10.886;2023-07-13T09:28:57;25.20;92.30
9385;DHT22;4732;49.340;10.886;2023-07-13T09:31:45;25.20;90.50
9385;DHT22;4732;49.340;10.886;2023-07-13T09:34:13;25.40;91.90
9385;DHT22;4732;49.340;10.886;2023-07-13T09:36:39;25.60;90.20
9385;DHT22;4732;49.340;10.886;2023-07-13T09:41:57;25.80;90.00
9385;DHT22;4732;49.340;10.886;2023-07-13T09:44:34;25.50;86.50
9385;DHT22;4732;49.340;10.886;2023-07-13T09:47:01;25.30;88.50
9385;DHT22;4732;49.340;10.886;2023-07-13T09:49:34;25.20;87.00
9385;DHT22;4732;49.340;10.886;2023-07-13T09:52:06;25.20;86.20
9385;DHT22;4732;49.340;10.886;2023-07-13T09:54:34;25.30;88.10
9385;DHT22;4732;49.340;10.886;2023-07-13T09:57:01;25.20;87.60
9385;DHT22;4732;49.340;10.886;2023-07-13T09:59:30;25.50;85.90
9385;DHT22;4732;49.340;10.886;2023-07-13T10:01:56;25.60;89.30
9385;DHT22;4732;49.340;10.886;2023-07-13T10:04:33;25.40;84.60
9385;DHT22;4732;49.340;10.886;2023-07-13T10:07:11;25.50;87.50
9385;DHT22;4732;49.340;10.886;2023-07-13T10:09:38;25.70;85.80
9385;DHT22;4732;49.340;10.886;2023-07-13T10:12:12;25.80;86.90
9385;DHT22;4732;49.340;10.886;2023-07-13T10:14:40;26.00;86.80
9385;DHT22;4732;49.340;10.886;2023-07-13T10:17:11;25.90;84.60
9385;DHT22;4732;49.340;10.886;2023-07-13T10:19:37;26.10;86.60
9385;DHT22;4732;49.340;10.886;2023-07-13T10:22:14;26.40;84.50
9385;DHT22;4732;49.340;10.886;2023-07-13T10:24:46;26.70;84.50
9385;DHT22;4732;49.340;10.886;2023-07-13T10:27:29;26.50;81.40
9385;DHT22;4732;49.340;10.886;2023-07-13T10:32:27;25.30;82.70
9385;DHT22;4732;49.340;10.886;2023-07-13T10:34:53;25.50;88.10
9385;DHT22;4732;49.340;10.886;2023-07-13T10:37:27;25.70;84.60
9385;DHT22;4732;49.340;10.886;2023-07-13T10:39:56;25.60;83.20
9385;DHT22;4732;49.340;10.886;2023-07-13T10:42:30;25.60;84.60
9385;DHT22;4732;49.340;10.886;2023-07-13T10:44:57;25.70;84.50
9385;DHT22;4732;49.340;10.886;2023-07-13T10:47:24;26.20;84.70
9385;DHT22;4732;49.340;10.886;2023-07-13T10:49:53;26.30;83.00
9385;DHT22;4732;49.340;10.886;2023-07-13T10:52:48;26.20;83.00
9385;DHT22;4732;49.340;10.886;2023-07-13T10:55:35;26.10;82.20
9385;DHT22;4732;49.340;10.886;2023-07-13T10:58:21;25.90;83.50
9385;DHT22;4732;49.340;10.886;2023-07-13T11:03:30;25.90;82.70
9385;DHT22;4732;49.340;10.886;2023-07-13T11:08:56;26.70;86.80
9385;DHT22;4732;49.340;10.886;2023-07-13T11:18:52;27.10;83.80
9385;DHT22;4732;49.340;10.886;2023-07-13T11:21:19;27.60;82.50
9385;DHT22;4732;49.340;10.886;2023-07-13T11:24:01;27.90;80.70
9385;DHT22;4732;49.340;10.886;2023-07-13T11:26:51;28.10;81.60
9385;DHT22;4732;49.340;10.886;2023-07-13T11:31:51;28.50;75.60
9385;DHT22;4732;49.340;10.886;2023-07-13T11:34:21;28.40;78.30
9385;DHT22;4732;49.340;10.886;2023-07-13T11:36:49;28.10;78.60
9385;DHT22;4732;49.340;10.886;2023-07-13T11:39:34;27.50;79.10
9385;DHT22;4732;49.340;10.886;2023-07-13T11:42:03;27.10;80.20
9385;DHT22;4732;49.340;10.886;2023-07-13T11:44:30;27.60;81.30
9385;DHT22;4732;49.340;10.886;2023-07-13T11:46:58;27.90;77.50
9385;DHT22;4732;49.340;10.886;2023-07-13T11:49:31;27.60;76.10
9385;DHT22;4732;49.340;10.886;2023-07-13T11:51:57;27.70;76.20
9385;DHT22;4732;49.340;10.886;2023-07-13T11:54:33;27.50;78.40
9385;DHT22;4732;49.340;10.886;2023-07-13T11:57:14;27.30;77.70
9385;DHT22;4732;49.340;10.886;2023-07-13T11:59:43;26.90;76.90
9385;DHT22;4732;49.340;10.886;2023-07-13T12:02:28;26.70;76.80
9385;DHT22;4732;49.340;10.886;2023-07-13T12:04:54;26.70;80.60
9385;DHT22;4732;49.340;10.886;2023-07-13T12:07:19;27.30;82.50
9385;DHT22;4732;49.340;10.886;2023-07-13T12:09:45;27.40;79.20
9385;DHT22;4732;49.340;10.886;2023-07-13T12:12:14;27.30;78.20
9385;DHT22;4732;49.340;10.886;2023-07-13T12:14:42;27.10;78.60
9385;DHT22;4732;49.340;10.886;2023-07-13T12:17:20;26.80;78.70
9385;DHT22;4732;49.340;10.886;2023-07-13T12:19:47;26.70;81.80
9385;DHT22;4732;49.340;10.886;2023-07-13T12:22:14;26.80;80.80
9385;DHT22;4732;49.340;10.886;2023-07-13T12:24:41;27.30;80.60
9385;DHT22;4732;49.340;10.886;2023-07-13T12:27:19;27.00;80.30
9385;DHT22;4732;49.340;10.886;2023-07-13T12:29:57;27.00;82.70
9385;DHT22;4732;49.340;10.886;2023-07-13T12:32:24;27.30;82.10
9385;DHT22;4732;49.340;10.886;2023-07-13T12:35:15;27.20;79.60
9385;DHT22;4732;49.340;10.886;2023-07-13T12:37:46;27.20;80.20
9385;DHT22;4732;49.340;10.886;2023-07-13T12:40:20;26.90;80.20
9385;DHT22;4732;49.340;10.886;2023-07-13T12:42:48;27.00;79.70
9385;DHT22;4732;49.340;10.886;2023-07-13T12:45:24;27.70;81.80
9385;DHT22;4732;49.340;10.886;2023-07-13T12:47:56;28.20;77.80
9385;DHT22;4732;49.340;10.886;2023-07-13T12:50:39;28.30;77.50
9385;DHT22;4732;49.340;10.886;2023-07-13T12:53:13;28.20;79.60
9385;DHT22;4732;49.340;10.886;2023-07-13T12:55:59;28.00;77.40
9385;DHT22;4732;49.340;10.886;2023-07-13T12:58:40;28.00;79.20
9385;DHT22;4732;49.340;10.886;2023-07-13T13:01:11;27.90;78.60
9385;DHT22;4732;49.340;10.886;2023-07-13T13:03:49;27.90;79.30
9385;DHT22;4732;49.340;10.886;2023-07-13T13:08:45;29.00;78.00
9385;DHT22;4732;49.340;10.886;2023-07-13T13:11:11;29.20;79.80
9385;DHT22;4732;49.340;10.886;2023-07-13T13:13:36;29.40;77.50
9385;DHT22;4732;49.340;10.886;2023-07-13T13:16:50;29.50;77.80
9385;DHT22;4732;49.340;10.886;2023-07-13T13:18:52;29.70;76.30
9385;DHT22;4732;49.340;10.886;2023-07-13T13:21:19;29.50;77.30
9385;DHT22;4732;49.340;10.886;2023-07-13T13:23:45;30.00;76.50
9385;DHT22;4732;49.340;10.886;2023-07-13T13:26:13;29.70;71.40
9385;DHT22;4732;49.340;10.886;2023-07-13T13:28:41;28.40;72.70
9385;DHT22;4732;49.340;10.886;2023-07-13T13:31:08;27.90;76.80
9385;DHT22;4732;49.340;10.886;2023-07-13T13:33:39;27.80;76.00
9385;DHT22;4732;49.340;10.886;2023-07-13T13:36:22;27.50;77.70
9385;DHT22;4732;49.340;10.886;2023-07-13T13:38:49;27.30;77.80
9385;DHT22;4732;49.340;10.886;2023-07-13T13:41:15;27.30;78.60
9385;DHT22;4732;49.340;10.886;2023-07-13T13:43:42;27.00;78.50
9385;DHT22;4732;49.340;10.886;2023-07-13T13:46:17;26.80;80.50
9385;DHT22;4732;49.340;10.886;2023-07-13T13:48:43;26.70;79.90
9385;DHT22;4732;49.340;10.886;2023-07-13T13:51:20;27.20;79.80
9385;DHT22;4732;49.340;10.886;2023-07-13T13:53:47;27.70;77.40
9385;DHT22;4732;49.340;10.886;2023-07-13T13:56:14;28.00;80.70
9385;DHT22;4732;49.340;10.886;2023-07-13T13:58:40;28.60;77.80
9385;DHT22;4732;49.340;10.886;2023-07-13T14:01:16;29.00;77.60
9385;DHT22;4732;49.340;10.886;2023-07-13T14:03:43;29.10;75.40
9385;DHT22;4732;49.340;10.886;2023-07-13T14:06:12;29.10;75.10
9385;DHT22;4732;49.340;10.886;2023-07-13T14:08:38;28.80;75.20
9385;DHT22;4732;49.340;10.886;2023-07-13T14:11:03;28.30;75.90
9385;DHT22;4732;49.340;10.886;2023-07-13T14:13:34;28.10;74.40
9385;DHT22;4732;49.340;10.886;2023-07-13T14:16:01;28.20;77.30
9385;DHT22;4732;49.340;10.886;2023-07-13T14:18:27;28.00;73.30
9385;DHT22;4732;49.340;10.886;2023-07-13T14:20:53;28.00;75.80
9385;DHT22;4732;49.340;10.886;2023-07-13T14:23:19;27.70;76.60
9385;DHT22;4732;49.340;10.886;2023-07-13T14:25:46;27.60;77.50
9385;DHT22;4732;49.340;10.886;2023-07-13T14:28:22;27.50;77.00
9385;DHT22;4732;49.340;10.886;2023-07-13T14:30:49;27.20;77.10
9385;DHT22;4732;49.340;10.886;2023-07-13T14:33:15;27.10;77.50
9385;DHT22;4732;49.340;10.886;2023-07-13T14:35:40;27.50;78.00
9385;DHT22;4732;49.340;10.886;2023-07-13T14:38:10;27.30;77.00
9385;DHT22;4732;49.340;10.886;2023-07-13T14:40:36;27.10;77.70
9385;DHT22;4732;49.340;10.886;2023-07-13T14:43:02;27.40;74.20
9385;DHT22;4732;49.340;10.886;2023-07-13T14:45:28;27.40;72.50
9385;DHT22;4732;49.340;10.886;2023-07-13T14:47:55;26.90;74.30
9385;DHT22;4732;49.340;10.886;2023-07-13T14:50:27;26.70;75.00
9385;DHT22;4732;49.340;10.886;2023-07-13T14:52:53;27.10;77.80
9385;DHT22;4732;49.340;10.886;2023-07-13T14:55:19;27.70;77.90
9385;DHT22;4732;49.340;10.886;2023-07-13T14:57:45;28.30;76.60
9385;DHT22;4732;49.340;10.886;2023-07-13T15:00:15;28.60;76.80
9385;DHT22;4732;49.340;10.886;2023-07-13T15:02:44;28.20;71.50
9385;DHT22;4732;49.340;10.886;2023-07-13T15:05:22;27.60;74.30
9385;DHT22;4732;49.340;10.886;2023-07-13T15:07:50;27.70;75.20
9385;DHT22;4732;49.340;10.886;2023-07-13T15:10:22;27.80;74.40
9385;DHT22;4732;49.340;10.886;2023-07-13T15:12:47;27.80;74.10
9385;DHT22;4732;49.340;10.886;2023-07-13T15:15:13;27.60;72.60
9385;DHT22;4732;49.340;10.886;2023-07-13T15:17:41;27.40;73.50
9385;DHT22;4732;49.340;10.886;2023-07-13T15:20:32;27.10;74.80
9385;DHT22;4732;49.340;10.886;2023-07-13T15:22:58;26.90;74.50
9385;DHT22;4732;49.340;10.886;2023-07-13T15:25:27;26.70;76.30
9385;DHT22;4732;49.340;10.886;2023-07-13T15:27:54;26.60;78.70
9385;DHT22;4732;49.340;10.886;2023-07-13T15:30:21;26.50;77.40
9385;DHT22;4732;49.340;10.886;2023-07-13T15:32:48;26.40;77.00
9385;DHT22;4732;49.340;10.886;2023-07-13T15:35:19;26.00;78.70
9385;DHT22;4732;49.340;10.886;2023-07-13T15:37:45;26.60;76.50
9385;DHT22;4732;49.340;10.886;2023-07-13T15:40:12;27.10;75.20
9385;DHT22;4732;49.340;10.886;2023-07-13T15:42:40;27.30;76.80
9385;DHT22;4732;49.340;10.886;2023-07-13T15:45:21;27.70;75.30
9385;DHT22;4732;49.340;10.886;2023-07-13T15:47:48;27.90;75.80
9385;DHT22;4732;49.340;10.886;2023-07-13T15:50:19;27.80;72.30
9385;DHT22;4732;49.340;10.886;2023-07-13T15:52:50;28.00;74.80
9385;DHT22;4732;49.340;10.886;2023-07-13T15:55:16;28.00;72.90
9385;DHT22;4732;49.340;10.886;2023-07-13T15:57:47;27.80;74.30
9385;DHT22;4732;49.340;10.886;2023-07-13T16:02:45;28.40;76.20
9385;DHT22;4732;49.340;10.886;2023-07-13T16:05:11;27.90;74.50
9385;DHT22;4732;49.340;10.886;2023-07-13T16:07:36;27.20;74.50
9385;DHT22;4732;49.340;10.886;2023-07-13T16:10:02;26.80;76.00
9385;DHT22;4732;49.340;10.886;2023-07-13T16:12:28;26.50;78.30
9385;DHT22;4732;49.340;10.886;2023-07-13T16:14:53;26.30;78.20
9385;DHT22;4732;49.340;10.886;2023-07-13T16:17:19;26.70;79.80
9385;DHT22;4732;49.340;10.886;2023-07-13T16:19:45;27.20;79.10
9385;DHT22;4732;49.340;10.886;2023-07-13T16:22:18;27.60;76.60
9385;DHT22;4732;49.340;10.886;2023-07-13T16:24:44;27.50;75.10
9385;DHT22;4732;49.340;10.886;2023-07-13T16:27:11;27.20;78.70
9385;DHT22;4732;49.340;10.886;2023-07-13T16:29:38;27.40;78.90
9385;DHT22;4732;49.340;10.886;2023-07-13T16:32:06;27.70;78.70
9385;DHT22;4732;49.340;10.886;2023-07-13T16:34:34;27.80;75.40
9385;DHT22;4732;49.340;10.886;2023-07-13T16:37:01;27.80;76.80
9385;DHT22;4732;49.340;10.886;2023-07-13T16:39:28;27.80;75.50
9385;DHT22;4732;49.340;10.886;2023-07-13T16:41:57;27.70;76.20
9385;DHT22;4732;49.340;10.886;2023-07-13T16:44:23;27.80;75.70
9385;DHT22;4732;49.340;10.886;2023-07-13T16:46:51;27.50;77.50
9385;DHT22;4732;49.340;10.886;2023-07-13T16:49:28;27.20;78.30
9385;DHT22;4732;49.340;10.886;2023-07-13T16:51:55;27.20;78.40
9385;DHT22;4732;49.340;10.886;2023-07-13T16:54:26;27.10;78.30
9385;DHT22;4732;49.340;10.886;2023-07-13T16:56:53;27.00;79.40
9385;DHT22;4732;49.340;10.886;2023-07-13T16:59:19;26.90;78.30
9385;DHT22;4732;49.340;10.886;2023-07-13T17:01:45;26.90;78.40
9385;DHT22;4732;49.340;10.886;2023-07-13T17:04:16;26.40;78.70
9385;DHT22;4732;49.340;10.886;2023-07-13T17:06:46;26.10;80.80
9385;DHT22;4732;49.340;10.886;2023-07-13T17:09:13;25.90;81.50
9385;DHT22;4732;49.340;10.886;2023-07-13T17:11:40;25.70;81.20
9385;DHT22;4732;49.340;10.886;2023-07-13T17:14:17;25.60;82.00
9385;DHT22;4732;49.340;10.886;2023-07-13T17:16:47;25.50;83.20
9385;DHT22;4732;49.340;10.886;2023-07-13T17:19:15;25.40;84.30
9385;DHT22;4732;49.340;10.886;2023-07-13T17:21:42;25.40;81.60
9385;DHT22;4732;49.340;10.886;2023-07-13T17:24:19;25.20;81.20
9385;DHT22;4732;49.340;10.886;2023-07-13T17:26:47;25.10;82.40
9385;DHT22;4732;49.340;10.886;2023-07-13T17:29:12;25.10;81.60
9385;DHT22;4732;49.340;10.886;2023-07-13T17:31:38;25.00;82.00
9385;DHT22;4732;49.340;10.886;2023-07-13T17:36:31;24.90;82.50
9385;DHT22;4732;49.340;10.886;2023-07-13T17:38:59;24.90;82.50
9385;DHT22;4732;49.340;10.886;2023-07-13T17:41:25;24.90;81.90
9385;DHT22;4732;49.340;10.886;2023-07-13T17:43:52;24.70;82.90
9385;DHT22;4732;49.340;10.886;2023-07-13T17:46:23;24.60;84.10
9385;DHT22;4732;49.340;10.886;2023-07-13T17:48:50;24.60;82.60
9385;DHT22;4732;49.340;10.886;2023-07-13T17:51:17;24.50;82.20
9385;DHT22;4732;49.340;10.886;2023-07-13T17:53:45;24.50;84.80
9385;DHT22;4732;49.340;10.886;2023-07-13T17:56:12;24.50;83.30
9385;DHT22;4732;49.340;10.886;2023-07-13T17:58:39;24.40;83.20
9385;DHT22;4732;49.340;10.886;2023-07-13T18:01:19;24.30;82.80
9385;DHT22;4732;49.340;10.886;2023-07-13T18:03:51;24.20;83.70
9385;DHT22;4732;49.340;10.886;2023-07-13T18:06:34;24.20;84.90
9385;DHT22;4732;49.340;10.886;2023-07-13T18:09:12;24.20;83.90
9385;DHT22;4732;49.340;10.886;2023-07-13T18:11:38;24.00;84.00
9385;DHT22;4732;49.340;10.886;2023-07-13T18:14:04;23.90;83.70
9385;DHT22;4732;49.340;10.886;2023-07-13T18:16:30;23.80;83.10
9385;DHT22;4732;49.340;10.886;2023-07-13T18:18:58;23.90;84.30
9385;DHT22;4732;49.340;10.886;2023-07-13T18:21:24;23.80;84.50
9385;DHT22;4732;49.340;10.886;2023-07-13T18:23:54;23.80;84.10
9385;DHT22;4732;49.340;10.886;2023-07-13T18:26:20;23.80;84.50
9385;DHT22;4732;49.340;10.886;2023-07-13T18:28:47;23.80;86.70
9385;DHT22;4732;49.340;10.886;2023-07-13T18:31:23;23.80;88.20
9385;DHT22;4732;49.340;10.886;2023-07-13T18:33:52;23.80;89.00
9385;DHT22;4732;49.340;10.886;2023-07-13T18:36:20;23.70;89.00
9385;DHT22;4732;49.340;10.886;2023-07-13T18:38:46;23.70;88.50
9385;DHT22;4732;49.340;10.886;2023-07-13T18:41:13;23.60;88.30
9385;DHT22;4732;49.340;10.886;2023-07-13T18:43:40;23.50;85.60
9385;DHT22;4732;49.340;10.886;2023-07-13T18:46:24;23.50;84.70
9385;DHT22;4732;49.340;10.886;2023-07-13T18:48:53;23.40;85.20
9385;DHT22;4732;49.340;10.886;2023-07-13T18:51:19;23.30;85.40
9385;DHT22;4732;49.340;10.886;2023-07-13T18:53:44;23.20;85.90
9385;DHT22;4732;49.340;10.886;2023-07-13T18:56:10;23.10;86.40
9385;DHT22;4732;49.340;10.886;2023-07-13T18:58:39;23.10;86.30
9385;DHT22;4732;49.340;10.886;2023-07-13T19:01:18;23.00;86.20
9385;DHT22;4732;49.340;10.886;2023-07-13T19:03:44;22.90;88.40
9385;DHT22;4732;49.340;10.886;2023-07-13T19:06:10;22.70;89.30
9385;DHT22;4732;49.340;10.886;2023-07-13T19:08:39;22.60;90.30
9385;DHT22;4732;49.340;10.886;2023-07-13T19:11:17;22.60;90.70
9385;DHT22;4732;49.340;10.886;2023-07-13T19:13:44;22.50;91.30
9385;DHT22;4732;49.340;10.886;2023-07-13T19:16:12;22.40;91.80
9385;DHT22;4732;49.340;10.886;2023-07-13T19:18:37;22.20;92.60
9385;DHT22;4732;49.340;10.886;2023-07-13T19:21:14;22.10;93.30
9385;DHT22;4732;49.340;10.886;2023-07-13T19:23:43;22.00;93.90
9385;DHT22;4732;49.340;10.886;2023-07-13T19:26:26;21.90;94.70
9385;DHT22;4732;49.340;10.886;2023-07-13T19:28:53;21.80;95.00
9385;DHT22;4732;49.340;10.886;2023-07-13T19:31:25;21.60;95.50
9385;DHT22;4732;49.340;10.886;2023-07-13T19:33:52;21.50;96.00